Svartfoss — V2PR3 — position and weather

sailwx.info

Track history (hours):
 
Tides and Currents Weather Stations Pressure Air Temp Water Temp Dewpoint Dewpoint Depression Visibility Wind Speed Wind Dir Waves Ship Positions

Svartfoss

Last reported at 2017-Feb-23 20:33 UTC. Time now 2017-Feb-23 20:53 UTC.
Position N 68°07' E 013°50'.

Length 80 m; draft 5.4 m.

Type: Cargo ship. MMSI: 304882000.

Date/timePositionNaut miles runAvg speedWind from/ knotsBaromVisibWave heightAir tempDewpointWater temp
2017-Feb-23 20:33N 68°07' E 013°50'0 0.0
2017-Feb-23 19:33N 68°07' E 013°50'3 3.2
2017-Feb-23 18:33N 68°08' E 013°59'1413.6
2017-Feb-23 17:33N 68°19' E 014°16'1313.1
2017-Feb-23 16:33N 68°28' E 014°43'1414.0
2017-Feb-23 15:34N 68°36' E 015°14'7 7.1
2017-Feb-23 14:32N 68°42' E 015°25'0 0.0
2017-Feb-23 13:33N 68°42' E 015°25'3 3.0
2017-Feb-23 12:33N 68°45' E 015°25'1414.0
2017-Feb-23 11:33N 68°58' E 015°40'1312.5
2017-Feb-23 10:33N 69°06' E 016°07'1313.5
2017-Feb-23 09:33N 69°19' E 016°11'1 0.9
2017-Feb-23 08:33N 69°19' E 016°08'0 0.0
2017-Feb-23 07:33N 69°19' E 016°08'10 9.6
2017-Feb-23 06:33N 69°25' E 016°31'1313.2
2017-Feb-23 05:33N 69°32' E 017°02'10 9.9
2017-Feb-23 04:33N 69°30' E 017°30'0 0.2
2017-Feb-23 03:32N 69°30' E 017°29'0 0.0
2017-Feb-23 02:33N 69°30' E 017°29'10 9.8
2017-Feb-23 01:33N 69°39' E 017°35'1414.2
2017-Feb-23 00:33N 69°31' E 018°08'1514.9
2017-Feb-22 23:33N 69°35' E 018°50'6 5.6
2017-Feb-22 22:33N 69°39' E 018°58'0 0.0
2017-Feb-22 21:34N 69°39' E 018°58'0 0.0
2017-Feb-22 20:33N 69°39' E 018°58'2 1.9
2017-Feb-22 19:34N 69°38' E 018°57'0 0.0
2017-Feb-22 18:33N 69°38' E 018°57'0 0.0
2017-Feb-22 17:34N 69°38' E 018°57'1 0.7
2017-Feb-22 16:34N 69°38' E 018°57'9 8.6
2017-Feb-22 15:33N 69°46' E 019°08'1414.1
2017-Feb-22 14:33N 69°52' E 019°46'1414.4
2017-Feb-22 13:33N 69°60' E 020°20'1414.0
2017-Feb-22 12:33N 70°06' E 020°58'1414.1
2017-Feb-22 11:33N 70°17' E 021°22'1413.9
2017-Feb-22 10:33N 70°25' E 021°56'1514.7
2017-Feb-22 09:33N 70°29' E 022°38'1414.2
2017-Feb-22 08:33N 70°36' E 023°15'8 8.5
2017-Feb-22 07:33N 70°38' E 023°40'2 2.1
2017-Feb-22 06:33N 70°40' E 023°40'0 0.0
2017-Feb-22 05:33N 70°40' E 023°40'8 7.8
2017-Feb-22 04:33N 70°48' E 023°47'1414.3
2017-Feb-22 03:33N 70°57' E 024°18'8 7.7
2017-Feb-22 02:33N 70°60' E 024°41'0 0.0
2017-Feb-22 01:33N 70°60' E 024°41'7 6.9
2017-Feb-22 00:33N 70°59' E 025°02'1313.3
2017-Feb-21 23:33N 70°56' E 025°42'1414.4
2017-Feb-21 22:33N 71°00' E 026°24'1413.9
2017-Feb-21 21:33N 71°05' E 027°04'1313.1
2017-Feb-21 20:33N 71°08' E 027°43'6 3.2
2017-Feb-21 18:33N 71°07' E 028°03'1313.1
2017-Feb-21 17:33N 71°02' E 028°41'1414.4
2017-Feb-21 16:33N 70°53' E 029°15'1414.0
2017-Feb-21 15:33N 70°44' E 029°48'7 6.5
2017-Feb-21 14:33N 70°38' E 029°43'0 0.0
2017-Feb-21 13:33N 70°38' E 029°43'0 0.0
2017-Feb-21 12:33N 70°38' E 029°43'0 0.0
2017-Feb-21 11:33N 70°38' E 029°43'10 9.9
2017-Feb-21 10:33N 70°43' E 030°09'1413.6
2017-Feb-21 09:33N 70°35' E 030°42'1414.3
2017-Feb-21 08:33N 70°26' E 031°16'1515.2
2017-Feb-21 07:33N 70°17' E 031°52'7812.0
2017-Feb-21 01:04N 69°03' E 033°05'5 9.1
2017-Feb-21 00:34N 68°59' E 033°02'2 2.3
2017-Feb-20 23:31N 68°56' E 033°02'0 0.0
2017-Feb-20 22:31N 68°56' E 033°02'0 0.0
2017-Feb-20 21:31N 68°56' E 033°02'0 0.0
2017-Feb-20 20:31N 68°56' E 033°02'0 0.0
2017-Feb-20 19:31N 68°56' E 033°02'0 0.0
2017-Feb-20 18:31N 68°56' E 033°02'0 0.0
2017-Feb-20 17:31N 68°56' E 033°02'0 0.0
2017-Feb-20 16:31N 68°56' E 033°02'0 0.0
2017-Feb-20 15:31N 68°56' E 033°02'0 0.0
2017-Feb-20 14:31N 68°56' E 033°02'0 0.0
2017-Feb-20 13:31N 68°56' E 033°02'0 0.0
2017-Feb-20 12:31N 68°56' E 033°02'0 0.0
2017-Feb-20 11:34N 68°56' E 033°02'0 0.0
2017-Feb-20 10:33N 68°56' E 033°02'0 0.0
2017-Feb-20 09:33N 68°56' E 033°02'0 0.0
2017-Feb-20 08:33N 68°56' E 033°02'0 0.0
2017-Feb-20 07:33N 68°56' E 033°02'0 0.0
2017-Feb-20 06:33N 68°56' E 033°02'0 0.0
2017-Feb-20 05:30N 68°56' E 033°02'0 0.0
2017-Feb-20 04:33N 68°56' E 033°02'0 0.0
2017-Feb-20 03:33N 68°56' E 033°02'0 0.0
2017-Feb-20 02:33N 68°56' E 033°02'0 0.0
2017-Feb-20 01:33N 68°56' E 033°02'0 0.0
2017-Feb-20 00:27N 68°56' E 033°02'0 0.0
2017-Feb-19 23:33N 68°56' E 033°02'0 0.0
2017-Feb-19 22:33N 68°56' E 033°02'0 0.0
2017-Feb-19 21:33N 68°56' E 033°02'0 0.0
2017-Feb-19 20:27N 68°56' E 033°02'0 0.0
2017-Feb-19 19:33N 68°56' E 033°02'0 0.0
2017-Feb-19 18:33N 68°56' E 033°02'0 0.0
2017-Feb-19 17:33N 68°56' E 033°02'0 0.0
2017-Feb-19 16:33N 68°56' E 033°02'0 0.0
2017-Feb-19 15:33N 68°56' E 033°02'0 0.0
2017-Feb-19 14:30N 68°56' E 033°02'0 0.0
2017-Feb-19 13:33N 68°56' E 033°02'0 0.0
2017-Feb-19 12:33N 68°56' E 033°02'0 0.0
2017-Feb-19 11:30N 68°56' E 033°02'0 0.0
2017-Feb-19 10:33N 68°56' E 033°02'0 0.0
2017-Feb-19 09:33N 68°56' E 033°02'0 0.0
2017-Feb-19 08:33N 68°56' E 033°02'0 0.0
2017-Feb-19 07:33N 68°56' E 033°02'0 0.0
2017-Feb-19 06:33N 68°56' E 033°02'0 0.0
2017-Feb-19 05:33N 68°56' E 033°02'0 0.0
2017-Feb-19 04:30N 68°56' E 033°02'0 0.0
2017-Feb-19 03:30N 68°56' E 033°02'0 0.0
2017-Feb-19 02:33N 68°56' E 033°02'0 0.0
2017-Feb-19 01:33N 68°56' E 033°02'0 0.0
2017-Feb-19 00:32N 68°56' E 033°02'0 0.0
2017-Feb-18 23:32N 68°56' E 033°02'0 0.0
2017-Feb-18 22:32N 68°56' E 033°02'0 0.0
2017-Feb-18 21:29N 68°56' E 033°02'0 0.0
2017-Feb-18 20:32N 68°56' E 033°02'0 0.0
2017-Feb-18 19:32N 68°56' E 033°02'0 0.0
2017-Feb-18 18:29N 68°56' E 033°02'0 0.0
2017-Feb-18 17:32N 68°56' E 033°02'0 0.3
2017-Feb-18 16:25N 68°57' E 033°02'0 0.0
2017-Feb-18 15:31N 68°57' E 033°02'0 0.0
2017-Feb-18 14:31N 68°57' E 033°02'0 0.0
2017-Feb-18 13:28N 68°57' E 033°02'0 0.0
2017-Feb-18 12:31N 68°57' E 033°02'0 0.0
2017-Feb-18 11:31N 68°57' E 033°02'0 0.0
2017-Feb-18 10:31N 68°57' E 033°02'0 0.0
2017-Feb-18 09:31N 68°57' E 033°02'0 0.0
2017-Feb-18 08:28N 68°57' E 033°02'0 0.0
2017-Feb-18 07:31N 68°57' E 033°02'0 0.0
2017-Feb-18 06:31N 68°57' E 033°02'0 0.0
2017-Feb-18 05:28N 68°57' E 033°02'0 0.0
2017-Feb-18 04:31N 68°57' E 033°02'0 0.0
2017-Feb-18 03:31N 68°57' E 033°02'0 0.0
2017-Feb-18 02:31N 68°57' E 033°02'0 0.0
2017-Feb-18 01:31N 68°57' E 033°02'0 0.0
2017-Feb-18 00:31N 68°57' E 033°02'0 0.0
2017-Feb-17 23:31N 68°57' E 033°02'0 0.0
2017-Feb-17 22:31N 68°57' E 033°02'0 0.0
2017-Feb-17 21:31N 68°57' E 033°02'1 1.3
2017-Feb-17 20:33N 68°58' E 033°03'0 0.0
2017-Feb-17 19:31N 68°58' E 033°03'0 0.0
2017-Feb-17 18:31N 68°58' E 033°03'0 0.0
2017-Feb-17 17:31N 68°58' E 033°03'0 0.0
2017-Feb-17 16:31N 68°58' E 033°03'0 0.0
2017-Feb-17 15:33N 68°58' E 033°03'0 0.0
2017-Feb-17 14:33N 68°58' E 033°03'5 4.9
2017-Feb-17 13:33N 69°03' E 033°03'7810.5
2017-Feb-17 06:10N 70°17' E 031°54'813.8
2017-Feb-17 05:33N 70°22' E 031°34'1414.2
2017-Feb-17 04:33N 70°30' E 031°00'1413.8
2017-Feb-17 03:33N 70°39' E 030°28'1111.3
2017-Feb-17 02:33N 70°42' E 029°55'6 5.9
2017-Feb-17 01:32N 70°38' E 029°43'0 0.0
2017-Feb-17 00:33N 70°38' E 029°43'5 4.9
2017-Feb-16 23:33N 70°42' E 029°50'1212.5
2017-Feb-16 22:33N 70°51' E 029°23'5 5.5
2017-Feb-16 21:33N 70°51' E 029°07'2 1.8
2017-Feb-16 20:33N 70°53' E 029°09'1313.3
2017-Feb-16 19:33N 71°03' E 028°42'1312.9
2017-Feb-16 18:33N 71°08' E 028°06'1313.4
2017-Feb-16 17:33N 71°07' E 027°24'1414.0
2017-Feb-16 16:33N 71°03' E 026°43'1414.2
2017-Feb-16 15:33N 70°58' E 026°03'3 2.6
2017-Feb-16 14:33N 70°60' E 025°58'1010.1
2017-Feb-16 13:33N 70°57' E 025°28'1514.7
2017-Feb-16 12:33N 71°01' E 024°43'1313.2
2017-Feb-16 11:33N 70°54' E 024°08'1514.9
2017-Feb-16 10:33N 70°44' E 023°37'6 5.6
2017-Feb-16 09:33N 70°38' E 023°40'2 1.6
2017-Feb-16 08:33N 70°40' E 023°39'5 5.2
2017-Feb-16 07:33N 70°38' E 023°24'1515.5
2017-Feb-16 06:33N 70°30' E 022°45'1615.6
2017-Feb-16 05:33N 70°26' E 022°00'1615.5
2017-Feb-16 04:33N 70°22' E 021°16'1616.1
2017-Feb-16 03:32N 70°14' E 020°33'1313.4
2017-Feb-16 02:33N 70°08' E 019°59'1 1.0
2017-Feb-16 01:33N 70°08' E 020°02'1212.1
2017-Feb-16 00:33N 69°56' E 019°53'1414.4
2017-Feb-15 23:33N 69°48' E 019°20'10 9.7
2017-Feb-15 22:33N 69°41' E 018°59'1 1.3
2017-Feb-15 21:32N 69°39' E 018°58'0 0.0
2017-Feb-15 20:33N 69°39' E 018°58'0 0.0
2017-Feb-15 19:33N 69°39' E 018°58'0 0.0
2017-Feb-15 18:32N 69°39' E 018°58'1110.9
2017-Feb-15 17:33N 69°32' E 018°35'1414.1
2017-Feb-15 16:33N 69°23' E 018°05'1413.4
2017-Feb-15 15:32N 69°10' E 017°56'1515.2
2017-Feb-15 14:32N 69°02' E 017°19'1515.3
2017-Feb-15 13:32N 68°52' E 016°47'7 6.7
2017-Feb-15 12:33N 68°48' E 016°33'0 0.0
2017-Feb-15 11:32N 68°48' E 016°33'0 0.0
2017-Feb-15 10:32N 68°48' E 016°33'0 0.0
2017-Feb-15 09:33N 68°48' E 016°33'0 0.4
2017-Feb-15 08:33N 68°48' E 016°34'1212.2
2017-Feb-15 07:33N 68°57' E 016°10'1211.7
2017-Feb-15 06:33N 68°58' E 015°38'9 8.6
2017-Feb-15 05:33N 68°50' E 015°28'8 8.0
2017-Feb-15 04:33N 68°42' E 015°25'0 0.0
2017-Feb-15 03:33N 68°42' E 015°25'0 0.0
2017-Feb-15 02:33N 68°42' E 015°25'0 0.0
2017-Feb-15 01:33N 68°42' E 015°25'3 2.8
2017-Feb-15 00:33N 68°39' E 015°25'1212.5
2017-Feb-14 23:33N 68°28' E 015°12'1515.1
2017-Feb-14 22:32N 68°14' E 014°55'1615.6
2017-Feb-14 21:33N 67°60' E 014°37'1615.8
2017-Feb-14 20:33N 67°45' E 014°20'1414.7
2017-Feb-14 19:33N 67°31' E 014°23'1414.0
2017-Feb-14 18:33N 67°17' E 014°15'1615.6
2017-Feb-14 17:32N 67°04' E 013°53'1414.2
2017-Feb-14 16:33N 66°54' E 013°27'1514.8
2017-Feb-14 15:33N 66°41' E 013°09'1413.9
2017-Feb-14 14:33N 66°28' E 012°59'1515.5
2017-Feb-14 13:33N 66°13' E 012°52'1212.2
2017-Feb-14 12:33N 66°01' E 012°40'9 8.5
2017-Feb-14 11:33N 65°56' E 012°24'1615.8
2017-Feb-14 10:33N 65°41' E 012°14'1615.7
2017-Feb-14 09:33N 65°27' E 011°57'1313.3
2017-Feb-14 08:33N 65°13' E 011°54'1515.1
2017-Feb-14 07:34N 65°00' E 011°37'1312.9
2017-Feb-14 06:33N 64°52' E 011°14'0 0.0
2017-Feb-14 05:33N 64°52' E 011°14'0 0.0
2017-Feb-14 04:33N 64°52' E 011°14'1010.2
2017-Feb-14 03:33N 64°44' E 010°58'1514.9
2017-Feb-14 02:33N 64°33' E 010°35'1515.0
2017-Feb-14 01:33N 64°19' E 010°21'7 7.3
2017-Feb-14 00:33N 64°13' E 010°13'1413.8
2017-Feb-13 23:33N 64°03' E 009°50'1312.7
2017-Feb-13 22:33N 63°51' E 009°40'2 2.4
2017-Feb-13 21:33N 63°49' E 009°38'0 0.0
2017-Feb-13 20:33N 63°49' E 009°38'  
Track history (hours):
 
Tides and Currents Weather Stations Pressure Air Temp Water Temp Dewpoint Dewpoint Depression Visibility Wind Speed Wind Dir Waves Ship Positions

Svartfoss

Last reported at 2017-Feb-23 20:33 UTC. Time now 2017-Feb-23 20:53 UTC.
Position N 68°07' E 013°50'.

Length 80 m; draft 5.4 m.

Type: Cargo ship. MMSI: 304882000.

Date/timePositionNaut miles runAvg speedWind from/ knotsBaromVisibWave heightAir tempDewpointWater temp
2017-Feb-23 20:33N 68°07' E 013°50'0 0.0
2017-Feb-23 19:33N 68°07' E 013°50'3 3.2
2017-Feb-23 18:33N 68°08' E 013°59'1413.6
2017-Feb-23 17:33N 68°19' E 014°16'1313.1
2017-Feb-23 16:33N 68°28' E 014°43'1414.0
2017-Feb-23 15:34N 68°36' E 015°14'7 7.1
2017-Feb-23 14:32N 68°42' E 015°25'0 0.0
2017-Feb-23 13:33N 68°42' E 015°25'3 3.0
2017-Feb-23 12:33N 68°45' E 015°25'1414.0
2017-Feb-23 11:33N 68°58' E 015°40'1312.5
2017-Feb-23 10:33N 69°06' E 016°07'1313.5
2017-Feb-23 09:33N 69°19' E 016°11'1 0.9
2017-Feb-23 08:33N 69°19' E 016°08'0 0.0
2017-Feb-23 07:33N 69°19' E 016°08'10 9.6
2017-Feb-23 06:33N 69°25' E 016°31'1313.2
2017-Feb-23 05:33N 69°32' E 017°02'10 9.9
2017-Feb-23 04:33N 69°30' E 017°30'0 0.2
2017-Feb-23 03:32N 69°30' E 017°29'0 0.0
2017-Feb-23 02:33N 69°30' E 017°29'10 9.8
2017-Feb-23 01:33N 69°39' E 017°35'1414.2
2017-Feb-23 00:33N 69°31' E 018°08'1514.9
2017-Feb-22 23:33N 69°35' E 018°50'6 5.6
2017-Feb-22 22:33N 69°39' E 018°58'0 0.0
2017-Feb-22 21:34N 69°39' E 018°58'0 0.0
2017-Feb-22 20:33N 69°39' E 018°58'2 1.9
2017-Feb-22 19:34N 69°38' E 018°57'0 0.0
2017-Feb-22 18:33N 69°38' E 018°57'0 0.0
2017-Feb-22 17:34N 69°38' E 018°57'1 0.7
2017-Feb-22 16:34N 69°38' E 018°57'9 8.6
2017-Feb-22 15:33N 69°46' E 019°08'1414.1
2017-Feb-22 14:33N 69°52' E 019°46'1414.4
2017-Feb-22 13:33N 69°60' E 020°20'1414.0
2017-Feb-22 12:33N 70°06' E 020°58'1414.1
2017-Feb-22 11:33N 70°17' E 021°22'1413.9
2017-Feb-22 10:33N 70°25' E 021°56'1514.7
2017-Feb-22 09:33N 70°29' E 022°38'1414.2
2017-Feb-22 08:33N 70°36' E 023°15'8 8.5
2017-Feb-22 07:33N 70°38' E 023°40'2 2.1
2017-Feb-22 06:33N 70°40' E 023°40'0 0.0
2017-Feb-22 05:33N 70°40' E 023°40'8 7.8
2017-Feb-22 04:33N 70°48' E 023°47'1414.3
2017-Feb-22 03:33N 70°57' E 024°18'8 7.7
2017-Feb-22 02:33N 70°60' E 024°41'0 0.0
2017-Feb-22 01:33N 70°60' E 024°41'7 6.9
2017-Feb-22 00:33N 70°59' E 025°02'1313.3
2017-Feb-21 23:33N 70°56' E 025°42'1414.4
2017-Feb-21 22:33N 71°00' E 026°24'1413.9
2017-Feb-21 21:33N 71°05' E 027°04'1313.1
2017-Feb-21 20:33N 71°08' E 027°43'6 3.2
2017-Feb-21 18:33N 71°07' E 028°03'1313.1
2017-Feb-21 17:33N 71°02' E 028°41'1414.4
2017-Feb-21 16:33N 70°53' E 029°15'1414.0
2017-Feb-21 15:33N 70°44' E 029°48'7 6.5
2017-Feb-21 14:33N 70°38' E 029°43'0 0.0
2017-Feb-21 13:33N 70°38' E 029°43'0 0.0
2017-Feb-21 12:33N 70°38' E 029°43'0 0.0
2017-Feb-21 11:33N 70°38' E 029°43'10 9.9
2017-Feb-21 10:33N 70°43' E 030°09'1413.6
2017-Feb-21 09:33N 70°35' E 030°42'1414.3
2017-Feb-21 08:33N 70°26' E 031°16'1515.2
2017-Feb-21 07:33N 70°17' E 031°52'7812.0
2017-Feb-21 01:04N 69°03' E 033°05'5 9.1
2017-Feb-21 00:34N 68°59' E 033°02'2 2.3
2017-Feb-20 23:31N 68°56' E 033°02'0 0.0
2017-Feb-20 22:31N 68°56' E 033°02'0 0.0
2017-Feb-20 21:31N 68°56' E 033°02'0 0.0
2017-Feb-20 20:31N 68°56' E 033°02'0 0.0
2017-Feb-20 19:31N 68°56' E 033°02'0 0.0
2017-Feb-20 18:31N 68°56' E 033°02'0 0.0
2017-Feb-20 17:31N 68°56' E 033°02'0 0.0
2017-Feb-20 16:31N 68°56' E 033°02'0 0.0
2017-Feb-20 15:31N 68°56' E 033°02'0 0.0
2017-Feb-20 14:31N 68°56' E 033°02'0 0.0
2017-Feb-20 13:31N 68°56' E 033°02'0 0.0
2017-Feb-20 12:31N 68°56' E 033°02'0 0.0
2017-Feb-20 11:34N 68°56' E 033°02'0 0.0
2017-Feb-20 10:33N 68°56' E 033°02'0 0.0
2017-Feb-20 09:33N 68°56' E 033°02'0 0.0
2017-Feb-20 08:33N 68°56' E 033°02'0 0.0
2017-Feb-20 07:33N 68°56' E 033°02'0 0.0
2017-Feb-20 06:33N 68°56' E 033°02'0 0.0
2017-Feb-20 05:30N 68°56' E 033°02'0 0.0
2017-Feb-20 04:33N 68°56' E 033°02'0 0.0
2017-Feb-20 03:33N 68°56' E 033°02'0 0.0
2017-Feb-20 02:33N 68°56' E 033°02'0 0.0
2017-Feb-20 01:33N 68°56' E 033°02'0 0.0
2017-Feb-20 00:27N 68°56' E 033°02'0 0.0
2017-Feb-19 23:33N 68°56' E 033°02'0 0.0
2017-Feb-19 22:33N 68°56' E 033°02'0 0.0
2017-Feb-19 21:33N 68°56' E 033°02'0 0.0
2017-Feb-19 20:27N 68°56' E 033°02'0 0.0
2017-Feb-19 19:33N 68°56' E 033°02'0 0.0
2017-Feb-19 18:33N 68°56' E 033°02'0 0.0
2017-Feb-19 17:33N 68°56' E 033°02'0 0.0
2017-Feb-19 16:33N 68°56' E 033°02'0 0.0
2017-Feb-19 15:33N 68°56' E 033°02'0 0.0
2017-Feb-19 14:30N 68°56' E 033°02'0 0.0
2017-Feb-19 13:33N 68°56' E 033°02'0 0.0
2017-Feb-19 12:33N 68°56' E 033°02'0 0.0
2017-Feb-19 11:30N 68°56' E 033°02'0 0.0
2017-Feb-19 10:33N 68°56' E 033°02'0 0.0
2017-Feb-19 09:33N 68°56' E 033°02'0 0.0
2017-Feb-19 08:33N 68°56' E 033°02'0 0.0
2017-Feb-19 07:33N 68°56' E 033°02'0 0.0
2017-Feb-19 06:33N 68°56' E 033°02'0 0.0
2017-Feb-19 05:33N 68°56' E 033°02'0 0.0
2017-Feb-19 04:30N 68°56' E 033°02'0 0.0
2017-Feb-19 03:30N 68°56' E 033°02'0 0.0
2017-Feb-19 02:33N 68°56' E 033°02'0 0.0
2017-Feb-19 01:33N 68°56' E 033°02'0 0.0
2017-Feb-19 00:32N 68°56' E 033°02'0 0.0
2017-Feb-18 23:32N 68°56' E 033°02'0 0.0
2017-Feb-18 22:32N 68°56' E 033°02'0 0.0
2017-Feb-18 21:29N 68°56' E 033°02'0 0.0
2017-Feb-18 20:32N 68°56' E 033°02'0 0.0
2017-Feb-18 19:32N 68°56' E 033°02'0 0.0
2017-Feb-18 18:29N 68°56' E 033°02'0 0.0
2017-Feb-18 17:32N 68°56' E 033°02'0 0.3
2017-Feb-18 16:25N 68°57' E 033°02'0 0.0
2017-Feb-18 15:31N 68°57' E 033°02'0 0.0
2017-Feb-18 14:31N 68°57' E 033°02'0 0.0
2017-Feb-18 13:28N 68°57' E 033°02'0 0.0
2017-Feb-18 12:31N 68°57' E 033°02'0 0.0
2017-Feb-18 11:31N 68°57' E 033°02'0 0.0
2017-Feb-18 10:31N 68°57' E 033°02'0 0.0
2017-Feb-18 09:31N 68°57' E 033°02'0 0.0
2017-Feb-18 08:28N 68°57' E 033°02'0 0.0
2017-Feb-18 07:31N 68°57' E 033°02'0 0.0
2017-Feb-18 06:31N 68°57' E 033°02'0 0.0
2017-Feb-18 05:28N 68°57' E 033°02'0 0.0
2017-Feb-18 04:31N 68°57' E 033°02'0 0.0
2017-Feb-18 03:31N 68°57' E 033°02'0 0.0
2017-Feb-18 02:31N 68°57' E 033°02'0 0.0
2017-Feb-18 01:31N 68°57' E 033°02'0 0.0
2017-Feb-18 00:31N 68°57' E 033°02'0 0.0
2017-Feb-17 23:31N 68°57' E 033°02'0 0.0
2017-Feb-17 22:31N 68°57' E 033°02'0 0.0
2017-Feb-17 21:31N 68°57' E 033°02'1 1.3
2017-Feb-17 20:33N 68°58' E 033°03'0 0.0
2017-Feb-17 19:31N 68°58' E 033°03'0 0.0
2017-Feb-17 18:31N 68°58' E 033°03'0 0.0
2017-Feb-17 17:31N 68°58' E 033°03'0 0.0
2017-Feb-17 16:31N 68°58' E 033°03'0 0.0
2017-Feb-17 15:33N 68°58' E 033°03'0 0.0
2017-Feb-17 14:33N 68°58' E 033°03'5 4.9
2017-Feb-17 13:33N 69°03' E 033°03'7810.5
2017-Feb-17 06:10N 70°17' E 031°54'813.8
2017-Feb-17 05:33N 70°22' E 031°34'1414.2
2017-Feb-17 04:33N 70°30' E 031°00'1413.8
2017-Feb-17 03:33N 70°39' E 030°28'1111.3
2017-Feb-17 02:33N 70°42' E 029°55'6 5.9
2017-Feb-17 01:32N 70°38' E 029°43'0 0.0
2017-Feb-17 00:33N 70°38' E 029°43'5 4.9
2017-Feb-16 23:33N 70°42' E 029°50'1212.5
2017-Feb-16 22:33N 70°51' E 029°23'5 5.5
2017-Feb-16 21:33N 70°51' E 029°07'2 1.8
2017-Feb-16 20:33N 70°53' E 029°09'1313.3
2017-Feb-16 19:33N 71°03' E 028°42'1312.9
2017-Feb-16 18:33N 71°08' E 028°06'1313.4
2017-Feb-16 17:33N 71°07' E 027°24'1414.0
2017-Feb-16 16:33N 71°03' E 026°43'1414.2
2017-Feb-16 15:33N 70°58' E 026°03'3 2.6
2017-Feb-16 14:33N 70°60' E 025°58'1010.1
2017-Feb-16 13:33N 70°57' E 025°28'1514.7
2017-Feb-16 12:33N 71°01' E 024°43'1313.2
2017-Feb-16 11:33N 70°54' E 024°08'1514.9
2017-Feb-16 10:33N 70°44' E 023°37'6 5.6
2017-Feb-16 09:33N 70°38' E 023°40'2 1.6
2017-Feb-16 08:33N 70°40' E 023°39'5 5.2
2017-Feb-16 07:33N 70°38' E 023°24'1515.5
2017-Feb-16 06:33N 70°30' E 022°45'1615.6
2017-Feb-16 05:33N 70°26' E 022°00'1615.5
2017-Feb-16 04:33N 70°22' E 021°16'1616.1
2017-Feb-16 03:32N 70°14' E 020°33'1313.4
2017-Feb-16 02:33N 70°08' E 019°59'1 1.0
2017-Feb-16 01:33N 70°08' E 020°02'1212.1
2017-Feb-16 00:33N 69°56' E 019°53'1414.4
2017-Feb-15 23:33N 69°48' E 019°20'10 9.7
2017-Feb-15 22:33N 69°41' E 018°59'1 1.3
2017-Feb-15 21:32N 69°39' E 018°58'0 0.0
2017-Feb-15 20:33N 69°39' E 018°58'0 0.0
2017-Feb-15 19:33N 69°39' E 018°58'0 0.0
2017-Feb-15 18:32N 69°39' E 018°58'1110.9
2017-Feb-15 17:33N 69°32' E 018°35'1414.1
2017-Feb-15 16:33N 69°23' E 018°05'1413.4
2017-Feb-15 15:32N 69°10' E 017°56'1515.2
2017-Feb-15 14:32N 69°02' E 017°19'1515.3
2017-Feb-15 13:32N 68°52' E 016°47'7 6.7
2017-Feb-15 12:33N 68°48' E 016°33'0 0.0
2017-Feb-15 11:32N 68°48' E 016°33'0 0.0
2017-Feb-15 10:32N 68°48' E 016°33'0 0.0
2017-Feb-15 09:33N 68°48' E 016°33'0 0.4
2017-Feb-15 08:33N 68°48' E 016°34'1212.2
2017-Feb-15 07:33N 68°57' E 016°10'1211.7
2017-Feb-15 06:33N 68°58' E 015°38'9 8.6
2017-Feb-15 05:33N 68°50' E 015°28'8 8.0
2017-Feb-15 04:33N 68°42' E 015°25'0 0.0
2017-Feb-15 03:33N 68°42' E 015°25'0 0.0
2017-Feb-15 02:33N 68°42' E 015°25'0 0.0
2017-Feb-15 01:33N 68°42' E 015°25'3 2.8
2017-Feb-15 00:33N 68°39' E 015°25'1212.5
2017-Feb-14 23:33N 68°28' E 015°12'1515.1
2017-Feb-14 22:32N 68°14' E 014°55'1615.6
2017-Feb-14 21:33N 67°60' E 014°37'1615.8
2017-Feb-14 20:33N 67°45' E 014°20'1414.7
2017-Feb-14 19:33N 67°31' E 014°23'1414.0
2017-Feb-14 18:33N 67°17' E 014°15'1615.6
2017-Feb-14 17:32N 67°04' E 013°53'1414.2
2017-Feb-14 16:33N 66°54' E 013°27'1514.8
2017-Feb-14 15:33N 66°41' E 013°09'1413.9
2017-Feb-14 14:33N 66°28' E 012°59'1515.5
2017-Feb-14 13:33N 66°13' E 012°52'1212.2
2017-Feb-14 12:33N 66°01' E 012°40'9 8.5
2017-Feb-14 11:33N 65°56' E 012°24'1615.8
2017-Feb-14 10:33N 65°41' E 012°14'1615.7
2017-Feb-14 09:33N 65°27' E 011°57'1313.3
2017-Feb-14 08:33N 65°13' E 011°54'1515.1
2017-Feb-14 07:34N 65°00' E 011°37'1312.9
2017-Feb-14 06:33N 64°52' E 011°14'0 0.0
2017-Feb-14 05:33N 64°52' E 011°14'0 0.0
2017-Feb-14 04:33N 64°52' E 011°14'1010.2
2017-Feb-14 03:33N 64°44' E 010°58'1514.9
2017-Feb-14 02:33N 64°33' E 010°35'1515.0
2017-Feb-14 01:33N 64°19' E 010°21'7 7.3
2017-Feb-14 00:33N 64°13' E 010°13'1413.8
2017-Feb-13 23:33N 64°03' E 009°50'1312.7
2017-Feb-13 22:33N 63°51' E 009°40'2 2.4
2017-Feb-13 21:33N 63°49' E 009°38'0 0.0
2017-Feb-13 20:33N 63°49' E 009°38'  

Dump ship's entire track history